Terminal Aerodrome Forecast
Issued by NWS Shreveport, LA

Home | Current Version | Previous Version | Text Only | Print | Product List | Glossary On
Versions: 1 2 3 4 5 6 7 8 9 10 11 12 13 14 15 16 17 18 19 20 21 22 23 24
312
FTUS44 KSHV 250552
TAFLFK
TAF
KLFK 250552Z 2506/2606 36007KT P6SM OVC021
     FM250700 36004KT P6SM BKN035 OVC200
     FM251500 09006KT 6SM -SHRA BR BKN050 OVC150
     FM251800 08008KT 4SM -SHRA BR OVC015
     FM252100 07006KT 4SM -RA BR OVC007
     FM260000 04007KT 2SM BR OVC004=

USA.gov is the U.S. government's official web portal to all federal, state and local government web resources and services.